Time;durP1;ratioP1;P1;durP2;ratioP2;P2;SDS_P1;SDS_P2;PMS_P1;PMS_P2;Temp;Humidity;BMP_temperature;BMP_pressure;BME280_temperature;BME280_humidity;BME280_pressure;Samples;Min_cycle;Max_cycle;Signal;HPM_P1;HPM_P2
2023/09/16 00:02:12;;;;;;;2.05;0.95;;;;;;;13.56;78.96;101134.69;5105885;28;20102;-65
2023/09/16 00:04:37;;;;;;;6.07;1.17;;;;;;;13.60;78.63;101136.41;5105666;28;20110;-65
2023/09/16 00:07:03;;;;;;;2.60;1.38;;;;;;;13.59;78.70;101137.31;5105608;28;20024;-65
2023/09/16 00:09:28;;;;;;;1.45;1.15;;;;;;;13.60;78.79;101136.41;5087529;28;20055;-66
2023/09/16 00:11:54;;;;;;;3.33;2.00;;;;;;;13.55;78.71;101137.31;5105205;28;20031;-66
2023/09/16 00:14:21;;;;;;;1.45;1.20;;;;;;;13.57;78.82;101138.19;5105630;28;20080;-64
2023/09/16 00:16:46;;;;;;;1.02;0.93;;;;;;;13.55;78.99;101142.53;5105371;28;20055;-65
2023/09/16 00:19:12;;;;;;;6.43;1.67;;;;;;;13.49;79.16;101135.63;5105604;28;20024;-65
2023/09/16 00:21:40;;;;;;;2.13;1.52;;;;;;;13.45;78.84;101137.38;5105566;28;20012;-66
2023/09/16 00:24:05;;;;;;;2.00;1.23;;;;;;;13.39;79.34;101133.09;5105483;28;20019;-65
2023/09/16 00:26:34;;;;;;;1.48;1.23;;;;;;;13.35;79.42;101126.19;5105062;28;20387;-66
2023/09/16 00:28:59;;;;;;;1.23;1.13;;;;;;;13.24;79.30;101121.03;5104057;28;20020;-66
2023/09/16 00:31:25;;;;;;;1.50;1.15;;;;;;;13.31;79.36;101127.06;5105321;28;20028;-66
2023/09/16 00:33:50;;;;;;;2.35;1.48;;;;;;;13.26;79.95;101136.66;5105458;28;20384;-66
2023/09/16 00:36:16;;;;;;;7.22;1.50;;;;;;;13.21;79.94;101136.69;5105265;28;20026;-66
2023/09/16 00:38:41;;;;;;;1.10;1.00;;;;;;;13.16;80.34;101135.91;5090647;28;20103;-65
2023/09/16 00:41:06;;;;;;;4.35;1.45;;;;;;;13.12;80.34;101135.03;5109391;28;20028;-66
2023/09/16 00:43:32;;;;;;;2.30;1.40;;;;;;;13.11;80.61;101127.22;5109682;28;20054;-65
2023/09/16 00:45:57;;;;;;;1.77;1.63;;;;;;;13.13;80.82;101143.75;5109432;28;20020;-65
2023/09/16 00:48:23;;;;;;;7.63;2.38;;;;;;;13.08;81.01;101133.31;5107973;28;20031;-65
2023/09/16 00:50:48;;;;;;;1.30;1.20;;;;;;;13.04;81.31;101136.84;5109463;28;20020;-65
2023/09/16 00:53:15;;;;;;;1.20;1.10;;;;;;;13.08;80.82;101133.31;5090583;28;20535;-65
2023/09/16 00:55:41;;;;;;;0.57;0.57;;;;;;;13.03;81.13;101127.28;5108912;28;20044;-64
2023/09/16 00:58:11;;;;;;;2.30;1.45;;;;;;;12.95;81.27;101126.47;5109359;28;20063;-66
2023/09/16 01:00:37;;;;;;;0.60;0.60;;;;;;;12.92;81.42;101121.28;5109095;28;20028;-66
2023/09/16 01:03:04;;;;;;;3.53;1.25;;;;;;;12.89;81.78;101123.03;5109117;28;20046;-66
2023/09/16 01:05:30;;;;;;;3.10;1.60;;;;;;;12.86;81.88;101125.66;5109032;28;20103;-66
2023/09/16 01:07:57;;;;;;;0.90;0.60;;;;;;;12.81;82.18;101124.81;5109076;28;20078;-65
2023/09/16 01:10:23;;;;;;;1.20;1.10;;;;;;;12.75;82.46;101124.84;5108793;28;20031;-67
2023/09/16 01:12:52;;;;;;;2.28;0.68;;;;;;;12.76;82.19;101127.44;5108784;28;20028;-65
2023/09/16 01:15:20;;;;;;;2.58;1.25;;;;;;;12.74;82.63;101120.53;5108715;28;20023;-66
2023/09/16 01:17:51;;;;;;;3.00;1.75;;;;;;;12.69;82.57;101123.16;5090451;28;20035;-66
2023/09/16 01:20:18;;;;;;;2.38;1.25;;;;;;;12.66;82.94;101120.56;5108358;28;20117;-66
2023/09/16 01:22:45;;;;;;;3.40;1.45;;;;;;;12.67;83.46;101116.25;5108669;28;20094;-66
2023/09/16 01:25:13;;;;;;;0.73;0.73;;;;;;;12.62;83.67;101119.72;5108102;28;20112;-66
2023/09/16 01:27:38;;;;;;;4.32;0.93;;;;;;;12.57;83.76;101115.41;5108297;28;20038;-66
2023/09/16 01:30:08;;;;;;;1.92;1.30;;;;;;;12.60;83.93;101118.00;5108585;28;20035;-66
2023/09/16 01:33:05;;;;;;;2.80;1.60;;;;;;;12.56;84.67;101124.97;5108210;28;20031;-66
2023/09/16 01:35:37;;;;;;;2.00;1.90;;;;;;;12.56;84.86;101121.47;5105120;28;20036;-66
2023/09/16 01:38:05;;;;;;;6.38;1.00;;;;;;;12.56;84.98;101111.94;5108481;28;20031;-67
2023/09/16 01:40:32;;;;;;;6.53;2.17;;;;;;;12.53;85.23;101101.53;5108149;28;20023;-65
2023/09/16 01:42:58;;;;;;;1.83;1.38;;;;;;;12.57;85.76;101112.81;5108491;28;20027;-66
2023/09/16 01:45:24;;;;;;;0.40;0.40;;;;;;;12.58;86.00;101111.94;5108403;28;20020;-65
2023/09/16 01:47:49;;;;;;;5.35;0.90;;;;;;;12.54;85.96;101108.47;5089162;28;20020;-66
2023/09/16 01:50:15;;;;;;;4.88;2.03;;;;;;;12.59;85.96;101114.53;5108199;28;20027;-66
2023/09/16 01:52:40;;;;;;;3.15;1.25;;;;;;;12.51;86.22;101111.97;5107995;28;20032;-64
2023/09/16 01:55:06;;;;;;;2.53;1.75;;;;;;;12.51;86.28;101111.97;5107883;28;20056;-66
2023/09/16 01:57:31;;;;;;;1.90;0.98;;;;;;;12.44;86.97;101101.59;5107991;28;20103;-65
2023/09/16 01:59:57;;;;;;;2.25;1.23;;;;;;;12.43;87.16;101112.88;5107994;28;20024;-66
2023/09/16 02:02:22;;;;;;;3.22;2.05;;;;;;;12.38;86.99;101105.94;5089782;28;20012;-66
2023/09/16 02:04:47;;;;;;;1.50;1.35;;;;;;;12.34;87.35;101106.84;5107807;28;20027;-65
2023/09/16 02:07:13;;;;;;;3.95;1.73;;;;;;;12.33;87.42;101106.84;5107740;28;20030;-66
2023/09/16 02:09:40;;;;;;;2.05;1.30;;;;;;;12.29;87.89;101106.00;5089547;28;20027;-66
2023/09/16 02:12:06;;;;;;;0.75;0.70;;;;;;;12.28;87.92;101104.28;5107673;28;20107;-66
2023/09/16 02:14:37;;;;;;;2.63;1.77;;;;;;;12.27;88.17;101106.00;5107828;28;20365;-66
2023/09/16 02:17:03;;;;;;;1.92;1.08;;;;;;;12.30;88.17;101101.66;5089319;28;20114;-65
2023/09/16 02:19:29;;;;;;;1.38;1.20;;;;;;;12.27;88.74;101092.09;5107601;28;20449;-65
2023/09/16 02:21:54;;;;;;;0.93;0.93;;;;;;;12.26;88.80;101093.00;5107538;28;20057;-65
2023/09/16 02:24:19;;;;;;;1.48;1.17;;;;;;;12.26;89.13;101093.00;5107742;28;20026;-66
2023/09/16 02:26:45;;;;;;;1.92;1.48;;;;;;;12.30;89.51;101081.69;5107201;28;20024;-65
2023/09/16 02:29:10;;;;;;;1.38;0.80;;;;;;;12.28;89.55;101088.66;5107549;28;20050;-66
2023/09/16 02:31:35;;;;;;;2.55;1.73;;;;;;;12.23;89.71;101088.66;5089116;28;20024;-66
2023/09/16 02:34:02;;;;;;;1.60;1.50;;;;;;;12.21;90.00;101093.00;5107327;28;20016;-66
2023/09/16 02:36:27;;;;;;;0.95;0.85;;;;;;;12.19;90.18;101089.53;5107387;28;20031;-66
2023/09/16 02:38:53;;;;;;;2.55;2.35;;;;;;;12.21;90.30;101082.59;5107290;28;20028;-66
2023/09/16 02:41:18;;;;;;;1.15;1.05;;;;;;;12.20;90.54;101088.69;5107072;28;20083;-66
2023/09/16 02:43:44;;;;;;;2.53;2.10;;;;;;;12.23;90.79;101082.59;5107196;28;20049;-66
2023/09/16 02:46:10;;;;;;;2.65;1.48;;;;;;;12.26;90.59;101087.78;5106999;28;20024;-66
2023/09/16 02:48:35;;;;;;;1.95;1.85;;;;;;;12.23;90.73;101077.38;5107086;28;20063;-66
2023/09/16 02:51:02;;;;;;;3.15;1.70;;;;;;;12.20;91.04;101083.47;5107000;28;20051;-66
2023/09/16 02:53:28;;;;;;;2.72;1.83;;;;;;;12.20;91.13;101083.47;5106837;28;20108;-66
2023/09/16 02:55:54;;;;;;;0.88;0.88;;;;;;;12.19;91.65;101079.13;5106817;28;20024;-66
2023/09/16 02:58:20;;;;;;;1.30;1.20;;;;;;;12.18;91.69;101085.22;5106865;28;20020;-66
2023/09/16 03:00:47;;;;;;;8.88;1.92;;;;;;;12.14;92.12;101081.75;5105979;28;20020;-65
2023/09/16 03:03:12;;;;;;;0.43;0.43;;;;;;;12.23;92.13;101077.38;5106925;28;20078;-66
2023/09/16 03:05:40;;;;;;;3.83;2.35;;;;;;;12.17;92.30;101086.09;5106838;28;20028;-67
2023/09/16 03:08:05;;;;;;;0.85;0.85;;;;;;;12.19;92.60;101083.50;5106711;28;20026;-66
2023/09/16 03:10:34;;;;;;;2.33;1.15;;;;;;;12.19;92.59;101086.09;5106452;28;20043;-66
2023/09/16 03:13:00;;;;;;;1.10;1.00;;;;;;;12.22;92.73;101084.31;5106518;28;20103;-65
2023/09/16 03:15:25;;;;;;;2.72;1.23;;;;;;;12.24;92.69;101077.38;5088430;28;20023;-66
2023/09/16 03:17:50;;;;;;;0.93;0.90;;;;;;;12.17;92.97;101067.00;5088254;28;20543;-65
2023/09/16 03:20:16;;;;;;;1.77;1.63;;;;;;;12.16;92.97;101078.28;5106516;28;20031;-65
2023/09/16 03:22:41;;;;;;;1.63;1.45;;;;;;;12.16;92.97;101068.72;5106538;28;20073;-65
2023/09/16 03:25:07;;;;;;;1.58;1.48;;;;;;;12.14;93.26;101060.09;5106506;28;20032;-65
2023/09/16 03:27:32;;;;;;;1.75;1.23;;;;;;;12.12;93.05;101047.03;5106085;28;20365;-66
2023/09/16 03:29:58;;;;;;;0.57;0.57;;;;;;;12.21;93.50;101061.78;5106300;28;20026;-66
2023/09/16 03:32:27;;;;;;;1.30;1.23;;;;;;;12.22;93.51;101054.84;5106201;28;20020;-65
2023/09/16 03:34:52;;;;;;;3.20;2.20;;;;;;;12.17;93.97;101049.66;5106239;28;20123;-66
2023/09/16 03:37:18;;;;;;;1.10;1.00;;;;;;;12.22;93.92;101050.47;5104589;28;20031;-65
2023/09/16 03:39:43;;;;;;;1.88;1.42;;;;;;;12.16;93.65;101040.09;5105924;28;20024;-65
2023/09/16 03:42:08;;;;;;;1.85;1.42;;;;;;;12.19;94.29;101053.09;5087448;28;20023;-65
2023/09/16 03:44:34;;;;;;;1.25;1.15;;;;;;;12.15;94.41;101046.19;5105831;28;20508;-66
2023/09/16 03:46:59;;;;;;;0.43;0.40;;;;;;;12.27;94.13;101046.13;5105870;28;20024;-65
2023/09/16 03:49:24;;;;;;;2.83;1.92;;;;;;;12.20;94.65;101047.03;5105727;28;20016;-65
2023/09/16 03:51:50;;;;;;;1.33;1.23;;;;;;;12.19;94.30;101034.88;5105753;28;20050;-65
2023/09/16 03:54:15;;;;;;;0.77;0.60;;;;;;;12.18;94.73;101040.09;5105451;28;20040;-65
2023/09/16 03:56:40;;;;;;;3.92;2.08;;;;;;;12.19;94.35;101037.47;5104201;28;20016;-65
2023/09/16 03:59:06;;;;;;;1.23;1.13;;;;;;;12.12;94.89;101035.78;5105875;28;20202;-65
2023/09/16 04:01:32;;;;;;;1.52;0.98;;;;;;;12.10;94.98;101028.00;5105600;28;20026;-65
2023/09/16 04:03:57;;;;;;;1.45;1.35;;;;;;;12.11;94.97;101021.91;5104359;28;20035;-65
2023/09/16 04:06:22;;;;;;;2.67;1.38;;;;;;;12.08;94.96;101029.72;5105615;28;20083;-65
2023/09/16 04:08:48;;;;;;;0.95;0.93;;;;;;;12.12;94.90;101031.44;5105758;28;20024;-65
2023/09/16 04:11:13;;;;;;;2.05;0.70;;;;;;;12.08;95.08;101032.31;5105160;28;20032;-66
2023/09/16 04:13:38;;;;;;;0.95;0.85;;;;;;;12.05;95.17;101019.28;5087482;28;20027;-66
2023/09/16 04:16:04;;;;;;;1.75;0.73;;;;;;;12.06;95.35;101026.22;5105474;28;20066;-66
2023/09/16 04:18:29;;;;;;;1.40;1.30;;;;;;;12.02;95.30;101021.91;5106174;28;20020;-64
2023/09/16 04:20:55;;;;;;;2.67;1.83;;;;;;;12.06;95.01;101023.63;5105682;28;20084;-66
2023/09/16 04:23:23;;;;;;;1.15;0.77;;;;;;;12.06;95.39;101027.97;5105603;28;20020;-64
2023/09/16 04:25:56;;;;;;;1.13;1.02;;;;;;;12.01;95.71;101017.59;5105296;28;20020;-66
2023/09/16 04:28:22;;;;;;;1.58;1.48;;;;;;;12.00;95.29;101021.03;5105539;28;20012;-65
2023/09/16 04:30:49;;;;;;;0.70;0.70;;;;;;;12.00;95.66;101013.25;5105549;28;20152;-65
2023/09/16 04:33:15;;;;;;;1.50;1.40;;;;;;;11.98;95.97;101017.59;5087036;28;20024;-66
2023/09/16 04:35:45;;;;;;;9.02;1.80;;;;;;;11.98;96.00;101008.03;5087328;28;20052;-65
2023/09/16 04:38:12;;;;;;;1.08;0.95;;;;;;;11.98;95.83;101015.00;5105219;28;20024;-66
2023/09/16 04:40:38;;;;;;;1.05;1.00;;;;;;;12.01;95.84;101010.63;5103615;28;20114;-66
2023/09/16 04:43:03;;;;;;;1.50;1.40;;;;;;;12.01;95.78;101009.78;5105517;28;20077;-65
2023/09/16 04:45:29;;;;;;;3.28;1.45;;;;;;;11.98;95.80;101012.41;5105174;28;20028;-65
2023/09/16 04:47:56;;;;;;;2.55;1.73;;;;;;;11.99;95.62;101004.59;5105363;28;20046;-65
2023/09/16 04:50:22;;;;;;;0.93;0.88;;;;;;;12.02;95.65;101009.78;5105213;28;20477;-65
2023/09/16 04:52:47;;;;;;;7.88;2.00;;;;;;;11.97;95.68;101000.25;5105102;28;20088;-65
2023/09/16 04:55:14;;;;;;;1.92;1.77;;;;;;;11.99;95.67;101006.31;5105018;28;20556;-65
2023/09/16 04:57:40;;;;;;;0.93;0.88;;;;;;;12.03;95.87;101005.41;5105039;28;20087;-66
2023/09/16 05:00:06;;;;;;;1.60;1.50;;;;;;;12.07;96.07;101014.97;5086943;28;20024;-65
2023/09/16 05:02:33;;;;;;;0.95;0.80;;;;;;;12.03;95.87;101000.22;5105276;28;20024;-65
2023/09/16 05:04:59;;;;;;;2.05;1.90;;;;;;;12.12;95.95;101008.00;5105033;28;20024;-65
2023/09/16 05:07:25;;;;;;;0.88;0.88;;;;;;;12.24;96.18;101011.41;5104876;28;20024;-66
2023/09/16 05:09:50;;;;;;;1.30;1.20;;;;;;;12.37;96.05;101010.50;5105040;28;20031;-66
2023/09/16 05:12:15;;;;;;;1.08;1.02;;;;;;;12.45;96.27;101004.34;5104667;28;20024;-66
2023/09/16 05:14:41;;;;;;;1.40;1.30;;;;;;;12.62;96.11;101001.66;5105026;28;20024;-65
2023/09/16 05:17:06;;;;;;;1.45;1.23;;;;;;;12.71;95.77;100998.97;5104947;28;20024;-66
2023/09/16 05:19:31;;;;;;;1.58;1.27;;;;;;;12.82;95.11;100991.06;5104934;28;20107;-65
2023/09/16 05:21:57;;;;;;;0.88;0.88;;;;;;;12.95;94.35;100990.97;5086821;28;20038;-65
2023/09/16 05:24:22;;;;;;;1.50;1.35;;;;;;;12.96;94.57;100996.16;5107704;28;20028;-66
2023/09/16 05:26:48;;;;;;;1.08;1.02;;;;;;;13.11;94.60;100999.50;5108240;28;20028;-66
2023/09/16 05:29:13;;;;;;;5.55;1.75;;;;;;;13.19;94.54;100992.47;5108559;28;20024;-66
2023/09/16 05:31:38;;;;;;;1.13;1.02;;;;;;;13.31;93.72;100999.28;5108608;28;20012;-66
2023/09/16 05:34:04;;;;;;;3.92;1.17;;;;;;;13.29;93.26;101001.03;5108496;28;20050;-66
2023/09/16 05:36:29;;;;;;;2.47;1.73;;;;;;;13.19;92.75;101004.63;5108555;28;20031;-66
2023/09/16 05:38:54;;;;;;;1.92;1.35;;;;;;;13.09;92.33;100994.31;5108543;28;20104;-66
2023/09/16 05:41:20;;;;;;;2.90;1.65;;;;;;;13.16;92.15;101015.09;5089872;28;20031;-65
2023/09/16 05:43:45;;;;;;;5.75;1.77;;;;;;;13.09;91.53;101007.34;5107007;28;20484;-65
2023/09/16 05:46:10;;;;;;;1.58;1.40;;;;;;;13.01;91.33;101004.81;5108343;28;20024;-65
2023/09/16 05:48:36;;;;;;;1.55;1.20;;;;;;;12.92;91.67;100996.19;5108292;28;20538;-65
2023/09/16 05:51:02;;;;;;;1.05;0.88;;;;;;;13.02;90.98;101008.25;5108255;28;20050;-65
2023/09/16 05:53:30;;;;;;;1.70;1.42;;;;;;;12.93;90.64;100997.91;5108099;28;20376;-66
2023/09/16 05:55:55;;;;;;;4.38;1.85;;;;;;;12.89;90.37;100992.72;5107857;28;20078;-66
2023/09/16 05:58:21;;;;;;;1.50;1.13;;;;;;;12.83;90.54;100994.50;5107996;28;20023;-65
2023/09/16 06:00:56;;;;;;;3.63;1.42;;;;;;;12.78;90.63;100999.75;5108061;28;20043;-65
2023/09/16 06:03:21;;;;;;;4.05;1.00;;;;;;;12.77;91.15;100988.50;5107536;28;20019;-65
2023/09/16 06:05:47;;;;;;;2.90;1.95;;;;;;;12.84;90.94;100994.50;5106581;28;20028;-65
2023/09/16 06:08:13;;;;;;;2.08;1.85;;;;;;;12.85;91.08;100991.03;5107762;28;20016;-66
2023/09/16 06:10:39;;;;;;;1.77;1.50;;;;;;;12.84;91.06;100981.47;5107676;28;20136;-66
2023/09/16 06:13:04;;;;;;;2.33;1.45;;;;;;;12.89;91.10;100986.69;5089276;28;20020;-65
2023/09/16 06:15:30;;;;;;;1.83;1.50;;;;;;;12.89;91.72;100977.09;5107715;28;20073;-65
2023/09/16 06:17:55;;;;;;;1.77;1.30;;;;;;;12.98;91.39;100985.72;5107505;28;20074;-65
2023/09/16 06:20:20;;;;;;;1.92;1.27;;;;;;;13.04;91.33;100988.25;5106084;28;20020;-66
2023/09/16 06:22:46;;;;;;;1.48;1.38;;;;;;;13.15;90.61;100988.16;5107524;28;20031;-66
2023/09/16 06:25:11;;;;;;;4.53;1.30;;;;;;;13.10;90.51;100989.97;5107445;28;20020;-65
2023/09/16 06:27:37;;;;;;;6.88;1.40;;;;;;;13.13;90.58;100992.53;5105870;28;20087;-65
2023/09/16 06:30:03;;;;;;;1.77;1.67;;;;;;;13.12;91.02;100993.41;5107345;28;20043;-65
2023/09/16 06:32:28;;;;;;;1.77;1.33;;;;;;;13.20;90.80;100990.72;5089216;28;20020;-66
2023/09/16 06:34:53;;;;;;;2.38;1.17;;;;;;;13.23;90.71;100988.06;5107077;28;20032;-65
2023/09/16 06:37:19;;;;;;;1.75;1.65;;;;;;;13.31;90.41;100991.47;5107223;28;20027;-65
2023/09/16 06:39:46;;;;;;;0.65;0.65;;;;;;;13.27;90.15;100988.03;5107408;28;20045;-65
2023/09/16 06:42:11;;;;;;;2.05;1.48;;;;;;;13.32;90.12;100990.59;5107031;28;20028;-66
2023/09/16 06:44:37;;;;;;;2.15;1.63;;;;;;;13.46;89.72;100995.66;5107076;28;20039;-66
2023/09/16 06:47:02;;;;;;;0.95;0.88;;;;;;;13.42;89.86;100986.13;5106988;28;20030;-66
2023/09/16 06:49:27;;;;;;;1.17;0.88;;;;;;;13.47;89.94;100991.28;5088672;28;20115;-65
2023/09/16 06:51:53;;;;;;;1.27;1.10;;;;;;;13.56;89.80;100993.81;5106943;28;20023;-65
2023/09/16 06:54:18;;;;;;;10.07;2.05;;;;;;;13.57;89.69;100989.50;5106433;28;20107;-66
2023/09/16 06:56:43;;;;;;;1.73;1.42;;;;;;;13.62;89.95;100991.19;5106537;28;20016;-66
2023/09/16 06:59:09;;;;;;;1.65;1.45;;;;;;;13.71;89.50;100992.81;5106713;28;20419;-65
2023/09/16 07:01:34;;;;;;;3.22;1.55;;;;;;;13.79;90.07;100994.44;5106812;28;20020;-66
2023/09/16 07:04:00;;;;;;;1.15;1.05;;;;;;;13.85;89.92;100989.16;5106690;28;20099;-66
2023/09/16 07:06:25;;;;;;;0.70;0.70;;;;;;;13.98;89.01;100992.47;5106385;28;20024;-65
2023/09/16 07:08:51;;;;;;;4.47;2.05;;;;;;;13.99;88.88;100988.97;5088384;28;20038;-65
2023/09/16 07:11:17;;;;;;;1.88;1.77;;;;;;;14.01;89.47;100995.03;5106204;28;20043;-67
2023/09/16 07:13:43;;;;;;;0.82;0.82;;;;;;;14.13;88.87;100987.06;5106264;28;20023;-66
2023/09/16 07:16:11;;;;;;;3.35;0.93;;;;;;;14.23;88.88;100992.97;5106457;28;20024;-69
2023/09/16 07:18:36;;;;;;;2.83;1.55;;;;;;;14.30;89.07;100985.06;5088147;28;20023;-65
2023/09/16 07:21:01;;;;;;;2.08;1.38;;;;;;;14.45;88.47;100989.19;5106403;28;20080;-66
2023/09/16 07:23:26;;;;;;;1.30;1.15;;;;;;;14.40;89.19;100978.81;5106447;28;20027;-65
2023/09/16 07:25:56;;;;;;;3.70;1.33;;;;;;;14.59;88.35;100987.25;5105979;28;20022;-66
2023/09/16 07:28:23;;;;;;;1.80;1.42;;;;;;;14.59;88.70;100986.38;5106167;28;20026;-65
2023/09/16 07:30:48;;;;;;;8.13;2.13;;;;;;;14.73;88.29;100988.75;5087800;28;20024;-65
2023/09/16 07:33:14;;;;;;;2.40;1.60;;;;;;;14.77;88.26;100985.22;5106164;28;20035;-66
2023/09/16 07:35:39;;;;;;;4.28;1.75;;;;;;;14.82;87.85;100978.19;5105979;28;20028;-65
2023/09/16 07:38:04;;;;;;;1.40;1.30;;;;;;;14.98;87.19;100986.63;5105941;28;20023;-66
2023/09/16 07:40:32;;;;;;;1.55;0.93;;;;;;;14.98;86.90;100989.22;5105885;28;20030;-66
2023/09/16 07:42:57;;;;;;;1.92;1.50;;;;;;;14.99;87.05;100985.75;5105793;28;20024;-66
2023/09/16 07:45:23;;;;;;;1.25;1.13;;;;;;;15.07;87.16;100982.13;5105790;28;20115;-65
2023/09/16 07:47:48;;;;;;;1.38;0.90;;;;;;;15.28;86.59;100978.25;5105489;28;20020;-66
2023/09/16 07:50:14;;;;;;;1.52;1.30;;;;;;;15.24;86.44;100971.34;5104427;28;20024;-65
2023/09/16 07:52:39;;;;;;;2.10;1.48;;;;;;;15.39;85.28;100971.94;5105717;28;20104;-67
2023/09/16 07:55:05;;;;;;;2.13;1.20;;;;;;;15.44;85.05;100983.19;5087297;28;20484;-67
2023/09/16 07:57:30;;;;;;;1.40;1.08;;;;;;;15.44;84.79;100980.56;5105487;28;20028;-66
2023/09/16 07:59:55;;;;;;;1.98;1.52;;;;;;;15.52;84.05;100983.03;5087496;28;20053;-67
2023/09/16 08:02:21;;;;;;;0.88;0.88;;;;;;;15.49;84.24;100979.56;5105685;28;20027;-66
2023/09/16 08:04:46;;;;;;;6.03;1.25;;;;;;;15.43;83.96;100981.47;5105605;28;20028;-66
2023/09/16 08:07:13;;;;;;;4.05;2.35;;;;;;;15.41;84.41;100980.63;5105379;28;20112;-67
2023/09/16 08:09:39;;;;;;;1.50;1.30;;;;;;;15.51;85.11;100987.38;5105591;28;20024;-65
2023/09/16 08:12:04;;;;;;;3.28;2.47;;;;;;;15.81;83.46;100987.69;5105104;28;20476;-66
2023/09/16 08:14:30;;;;;;;1.75;1.30;;;;;;;15.82;83.79;100986.78;5105314;28;20098;-66
2023/09/16 08:16:57;;;;;;;1.08;0.90;;;;;;;15.98;83.02;100991.72;5087330;28;20020;-66
2023/09/16 08:19:23;;;;;;;2.08;1.25;;;;;;;15.97;82.95;100984.72;5105229;28;20031;-66
2023/09/16 08:21:49;;;;;;;3.33;1.27;;;;;;;16.08;82.75;100990.63;5105459;28;20024;-67
2023/09/16 08:24:14;;;;;;;0.80;0.80;;;;;;;16.10;82.31;100990.59;5105584;28;20020;-67
2023/09/16 08:26:39;;;;;;;1.42;0.90;;;;;;;15.95;82.68;100989.13;5105049;28;20547;-66
2023/09/16 08:29:05;;;;;;;1.85;1.58;;;;;;;16.00;82.89;100989.06;5105323;28;20037;-67
2023/09/16 08:31:30;;;;;;;1.77;1.20;;;;;;;15.98;82.89;100992.59;5105434;28;20020;-66
2023/09/16 08:34:01;;;;;;;1.23;0.93;;;;;;;16.05;82.43;100988.09;5105269;28;20489;-67
2023/09/16 08:36:27;;;;;;;1.20;1.10;;;;;;;16.00;82.73;100992.56;5105293;28;20019;-66
2023/09/16 08:38:52;;;;;;;2.45;1.65;;;;;;;16.13;82.57;100987.03;5105287;28;20031;-66
2023/09/16 08:41:25;;;;;;;2.20;1.83;;;;;;;16.15;83.36;100983.47;5104618;28;20109;-68
2023/09/16 08:43:53;;;;;;;4.28;1.73;;;;;;;16.46;83.67;100984.53;5105062;28;20020;-66
2023/09/16 08:46:22;;;;;;;2.05;1.67;;;;;;;16.75;82.94;100990.81;5105050;28;20020;-65
2023/09/16 08:48:50;;;;;;;1.25;0.90;;;;;;;17.06;81.12;100986.56;5105390;28;20028;-67
2023/09/16 08:51:17;;;;;;;1.85;1.60;;;;;;;17.06;80.54;100989.19;5105023;28;20020;-65
2023/09/16 08:53:44;;;;;;;1.63;1.52;;;;;;;17.02;80.62;100991.00;5104867;28;20113;-66
2023/09/16 08:56:09;;;;;;;2.08;1.63;;;;;;;17.30;80.31;100992.91;5086551;28;20032;-66
2023/09/16 08:58:35;;;;;;;3.15;1.63;;;;;;;17.55;79.28;100994.00;5106586;28;20057;-66
2023/09/16 09:01:02;;;;;;;1.42;1.23;;;;;;;17.71;78.62;100990.06;5090966;28;20028;-66
2023/09/16 09:03:29;;;;;;;2.72;1.73;;;;;;;17.74;78.16;100989.09;5090652;28;20024;-65
2023/09/16 09:05:55;;;;;;;1.80;1.30;;;;;;;17.85;77.47;100994.03;5108855;28;20046;-66
2023/09/16 09:08:20;;;;;;;2.97;1.70;;;;;;;17.91;76.88;100993.84;5108976;28;20047;-66
2023/09/16 09:10:46;;;;;;;2.20;1.90;;;;;;;18.06;76.78;101005.66;5090294;28;20369;-67
2023/09/16 09:13:13;;;;;;;4.07;2.00;;;;;;;18.46;77.58;100986.94;5107440;28;20016;-65
2023/09/16 09:15:41;;;;;;;1.63;1.52;;;;;;;19.24;76.09;101000.16;5090460;28;20031;-66
2023/09/16 09:18:07;;;;;;;2.28;1.13;;;;;;;19.59;72.82;100993.66;5108644;28;20070;-65
2023/09/16 09:20:33;;;;;;;2.25;1.73;;;;;;;19.42;71.12;100997.78;5090314;28;20020;-65
2023/09/16 09:22:59;;;;;;;2.28;1.35;;;;;;;19.19;71.10;100996.81;5108651;28;20023;-66
2023/09/16 09:25:27;;;;;;;1.75;1.23;;;;;;;19.21;71.72;101000.28;5108601;28;20020;-65
2023/09/16 09:27:54;;;;;;;3.75;1.67;;;;;;;19.41;71.98;100996.06;5108266;28;20049;-65
2023/09/16 09:30:25;;;;;;;2.00;1.75;;;;;;;19.87;69.77;100990.84;5108468;28;20031;-65
2023/09/16 09:32:50;;;;;;;3.63;1.93;;;;;;;20.32;70.62;100988.25;5107022;28;20024;-64
2023/09/16 09:35:16;;;;;;;2.55;2.03;;;;;;;20.96;67.06;100974.28;5108474;28;20027;-65
2023/09/16 09:37:41;;;;;;;5.97;1.95;;;;;;;20.89;67.27;100974.53;5108068;28;20034;-65
2023/09/16 09:40:12;;;;;;;2.75;2.03;;;;;;;21.36;68.14;100980.44;5108258;28;20463;-66
2023/09/16 09:42:40;;;;;;;1.73;1.30;;;;;;;22.11;66.90;100970.91;5107688;28;20038;-65
2023/09/16 09:45:06;;;;;;;2.67;1.50;;;;;;;22.18;63.87;100967.00;5089925;28;20030;-65
2023/09/16 09:47:31;;;;;;;1.33;1.08;;;;;;;21.52;63.38;100974.44;5089826;28;20020;-65
2023/09/16 09:49:57;;;;;;;4.03;2.05;;;;;;;20.90;64.64;100973.59;5089796;28;20096;-65
2023/09/16 09:52:23;;;;;;;8.05;1.85;;;;;;;20.74;66.15;100972.50;5107840;28;20020;-65
2023/09/16 09:54:52;;;;;;;3.55;1.92;;;;;;;20.81;64.46;100972.19;5107552;28;20123;-66
2023/09/16 09:57:17;;;;;;;1.48;1.02;;;;;;;20.60;64.28;100967.81;5089495;28;20165;-65
2023/09/16 09:59:42;;;;;;;2.70;1.85;;;;;;;20.38;65.29;100960.81;5089456;28;20078;-67
2023/09/16 10:02:08;;;;;;;3.63;1.85;;;;;;;20.40;65.04;100966.88;5107791;28;20115;-65
2023/09/16 10:04:33;;;;;;;2.83;1.33;;;;;;;20.60;64.29;100962.53;5089618;28;20020;-65
2023/09/16 10:07:00;;;;;;;1.60;1.42;;;;;;;20.58;65.07;100959.09;5107700;28;20024;-65
2023/09/16 10:09:25;;;;;;;1.90;1.70;;;;;;;21.32;66.29;100963.00;5089162;28;20135;-65
2023/09/16 10:11:51;;;;;;;2.05;1.45;;;;;;;21.90;63.75;100947.22;5107329;28;20361;-65
2023/09/16 10:14:17;;;;;;;2.50;1.83;;;;;;;22.36;61.18;100946.75;5106242;28;20047;-65
2023/09/16 10:16:42;;;;;;;1.27;1.17;;;;;;;22.36;59.58;100954.69;5107538;28;20032;-65
2023/09/16 10:19:09;;;;;;;8.27;1.67;;;;;;;22.08;60.64;100950.75;5107375;28;20081;-65
2023/09/16 10:21:37;;;;;;;3.15;1.92;;;;;;;21.85;60.83;100950.06;5107373;28;20020;-65
2023/09/16 10:24:02;;;;;;;2.65;1.58;;;;;;;21.67;60.13;100941.19;5107367;28;20120;-65
2023/09/16 10:26:28;;;;;;;2.40;1.40;;;;;;;21.62;60.90;100943.19;5106991;28;20055;-65
2023/09/16 10:28:55;;;;;;;3.65;1.52;;;;;;;21.97;60.74;100939.81;5107184;28;20080;-65
2023/09/16 10:31:21;;;;;;;2.38;1.45;;;;;;;22.09;60.41;100926.03;5107347;28;20028;-65
2023/09/16 10:33:47;;;;;;;1.23;1.05;;;;;;;22.25;58.29;100926.09;5088994;28;20020;-65
2023/09/16 10:36:14;;;;;;;1.52;1.27;;;;;;;21.83;58.44;100924.63;5107090;28;20447;-65
2023/09/16 10:38:41;;;;;;;3.60;1.88;;;;;;;21.78;60.07;100932.78;5106885;28;20032;-65
2023/09/16 10:41:08;;;;;;;2.83;1.30;;;;;;;21.94;59.78;100918.81;5106930;28;20027;-64
2023/09/16 10:43:34;;;;;;;3.05;1.25;;;;;;;22.09;58.64;100918.09;5107172;28;20024;-64
2023/09/16 10:46:00;;;;;;;2.97;1.50;;;;;;;22.05;57.07;100921.81;5088814;28;20078;-64
2023/09/16 10:48:26;;;;;;;1.38;1.25;;;;;;;21.84;58.28;100915.78;5106930;28;20027;-65
2023/09/16 10:50:57;;;;;;;2.90;1.38;;;;;;;21.91;57.09;100914.56;5107086;28;20020;-64
2023/09/16 10:53:26;;;;;;;3.35;1.55;;;;;;;21.93;58.67;100915.34;5106999;28;20024;-65
2023/09/16 10:55:54;;;;;;;1.58;0.98;;;;;;;22.31;56.69;100901.16;5106797;28;20043;-65
2023/09/16 10:58:31;;;;;;;1.38;1.05;;;;;;;22.83;56.21;100907.38;5088512;28;20031;-65
2023/09/16 11:00:58;;;;;;;1.48;1.02;;;;;;;23.17;55.99;100915.31;5106776;28;20038;-65
2023/09/16 11:03:30;;;;;;;2.45;1.15;;;;;;;23.11;55.05;100911.22;5106291;28;20020;-65
2023/09/16 11:05:58;;;;;;;2.58;1.58;;;;;;;22.96;55.49;100904.94;5106345;28;20436;-65
2023/09/16 11:08:24;;;;;;;1.38;0.90;;;;;;;22.90;55.60;100905.25;5106535;28;20027;-64
2023/09/16 11:10:50;;;;;;;2.42;1.20;;;;;;;22.85;55.80;100902.00;5087957;28;20016;-64
2023/09/16 11:13:16;;;;;;;1.40;1.20;;;;;;;22.76;56.33;100898.88;5106075;28;20445;-64
2023/09/16 11:15:41;;;;;;;2.80;1.10;;;;;;;23.61;55.62;100900.59;5106565;28;20081;-65
2023/09/16 11:18:10;;;;;;;1.65;1.02;;;;;;;24.25;53.99;100893.50;5087916;28;20529;-64
2023/09/16 11:20:37;;;;;;;1.80;1.23;;;;;;;24.45;51.96;100887.03;5105908;28;20051;-65